Time;durP1;ratioP1;P1;durP2;ratioP2;P2;SDS_P1;SDS_P2;PMS_P1;PMS_P2;Temp;Humidity;BMP_temperature;BMP_pressure;BME280_temperature;BME280_humidity;BME280_pressure;Samples;Min_cycle;Max_cycle;Signal;HPM_P1;HPM_P2
2022/11/27 00:02:13;;;;;;;13.10;4.35;;;;;;;6.55;100.00;102320.25;5022541;28;20048;-69
2022/11/27 00:04:38;;;;;;;14.45;4.15;;;;;;;6.52;100.00;102322.38;5031967;28;20494;-70
2022/11/27 00:07:03;;;;;;;17.20;4.47;;;;;;;6.49;100.00;102326.25;5032116;28;20104;-71
2022/11/27 00:09:29;;;;;;;14.75;4.22;;;;;;;6.47;100.00;102322.03;5032998;28;20423;-70
2022/11/27 00:11:54;;;;;;;10.63;3.47;;;;;;;6.47;100.00;102320.19;5031620;28;20052;-71
2022/11/27 00:14:19;;;;;;;14.80;4.30;;;;;;;6.42;100.00;102317.16;5031692;28;20468;-71
2022/11/27 00:16:45;;;;;;;14.18;4.43;;;;;;;6.45;100.00;102319.50;5032722;28;20022;-72
2022/11/27 00:19:10;;;;;;;10.90;4.20;;;;;;;6.38;100.00;102315.78;5024896;28;20030;-72
2022/11/27 00:21:37;;;;;;;13.90;4.50;;;;;;;6.35;100.00;102314.25;5019521;28;20080;-72
2022/11/27 00:24:06;;;;;;;15.43;4.68;;;;;;;6.33;100.00;102307.38;5012855;28;20362;-70
2022/11/27 00:26:32;;;;;;;12.00;4.43;;;;;;;6.32;100.00;102298.44;5020994;28;20489;-70
2022/11/27 00:28:58;;;;;;;16.27;5.13;;;;;;;6.30;100.00;102297.75;5012804;28;20041;-72
2022/11/27 00:31:28;;;;;;;12.57;4.85;;;;;;;6.31;100.00;102294.09;5016124;28;20414;-70
2022/11/27 00:33:54;;;;;;;14.57;4.57;;;;;;;6.33;100.00;102288.53;5012796;28;20104;-70
2022/11/27 00:36:20;;;;;;;11.30;5.07;;;;;;;6.29;100.00;102292.56;5021396;28;20037;-70
2022/11/27 00:38:45;;;;;;;15.23;4.00;;;;;;;6.23;100.00;102283.28;5019343;28;20034;-70
2022/11/27 00:41:13;;;;;;;14.05;4.50;;;;;;;6.20;100.00;102289.84;5013373;28;20405;-69
2022/11/27 00:43:38;;;;;;;14.35;5.15;;;;;;;6.15;100.00;102280.56;5012723;28;20037;-71
2022/11/27 00:46:04;;;;;;;18.83;5.40;;;;;;;6.17;100.00;102284.75;5012204;28;20030;-71
2022/11/27 00:48:29;;;;;;;15.90;5.20;;;;;;;6.18;100.00;102281.06;5012458;28;20041;-71
2022/11/27 00:51:00;;;;;;;14.35;5.00;;;;;;;6.15;100.00;102283.25;5013136;28;20037;-68
2022/11/27 00:53:25;;;;;;;14.02;4.65;;;;;;;6.16;100.00;102279.53;5022233;28;20033;-71
2022/11/27 00:55:50;;;;;;;20.98;5.72;;;;;;;6.13;100.00;102275.34;5016754;28;20037;-69
2022/11/27 00:58:16;;;;;;;15.20;4.85;;;;;;;6.14;100.00;102276.19;5016443;28;20073;-71
2022/11/27 01:00:41;;;;;;;17.25;5.90;;;;;;;6.14;100.00;102268.94;5015538;28;20046;-72
2022/11/27 01:03:06;;;;;;;15.20;4.78;;;;;;;6.16;100.00;102261.59;5023233;28;20054;-72
2022/11/27 01:05:35;;;;;;;17.00;5.22;;;;;;;6.16;100.00;102260.72;5017334;28;20469;-69
2022/11/27 01:08:00;;;;;;;14.07;5.15;;;;;;;6.13;100.00;102253.84;5018928;28;20404;-70
2022/11/27 01:10:26;;;;;;;17.63;5.28;;;;;;;6.12;100.00;102256.69;5016526;28;20038;-70
2022/11/27 01:12:51;;;;;;;15.35;5.57;;;;;;;6.14;100.00;102252.00;5020273;28;20050;-68
2022/11/27 01:15:16;;;;;;;20.70;5.55;;;;;;;6.12;100.00;102238.72;5016300;28;20528;-72
2022/11/27 01:17:41;;;;;;;14.27;4.85;;;;;;;6.12;100.00;102237.88;5027156;28;20105;-70
2022/11/27 01:20:07;;;;;;;18.13;5.20;;;;;;;6.11;100.00;102237.03;5021890;28;20083;-70
2022/11/27 01:22:32;;;;;;;17.00;5.25;;;;;;;6.05;100.00;102234.97;5021561;28;20412;-72
2022/11/27 01:24:58;;;;;;;12.43;4.90;;;;;;;6.07;100.00;102249.13;5016074;28;20026;-71
2022/11/27 01:27:23;;;;;;;19.27;5.57;;;;;;;6.04;100.00;102254.81;5022418;28;20070;-72
2022/11/27 01:29:48;;;;;;;20.23;5.55;;;;;;;6.02;100.00;102248.75;5017274;28;20034;-72
2022/11/27 01:32:13;;;;;;;12.30;5.18;;;;;;;6.05;100.00;102243.03;5015751;28;20064;-71
2022/11/27 01:34:39;;;;;;;16.30;5.40;;;;;;;6.01;100.00;102239.84;5016165;28;20122;-71
2022/11/27 01:37:04;;;;;;;15.68;4.78;;;;;;;6.02;100.00;102232.63;5015834;28;20026;-70
2022/11/27 01:39:29;;;;;;;18.13;5.50;;;;;;;5.99;100.00;102224.88;5015892;28;20050;-72
2022/11/27 01:41:55;;;;;;;17.92;5.65;;;;;;;5.98;100.00;102210.63;5015627;28;20436;-68
2022/11/27 01:44:23;;;;;;;16.08;5.50;;;;;;;5.96;100.00;102211.72;5015851;28;20069;-70
2022/11/27 01:46:55;;;;;;;15.75;5.00;;;;;;;5.99;100.00;102211.44;5014148;28;20061;-70
2022/11/27 01:49:23;;;;;;;;;;;;;;;6.08;100.00;102217.69;5015892;28;20029;-72
2022/11/27 01:51:57;;;;;;;13.23;5.32;;;;;;;5.95;100.00;102216.28;5016531;28;19949;-70
2022/11/27 01:54:27;;;;;;;13.30;5.50;;;;;;;5.94;100.00;102198.47;5015274;28;20037;-71
2022/11/27 01:56:57;;;;;;;14.77;5.97;;;;;;;5.92;100.00;102188.88;5014933;28;20068;-69
2022/11/27 01:59:23;;;;;;;13.32;5.13;;;;;;;5.90;100.00;102185.50;5015862;28;20033;-69
2022/11/27 02:01:49;;;;;;;16.77;5.45;;;;;;;5.84;100.00;102174.41;5022205;28;20124;-72
2022/11/27 02:04:14;;;;;;;19.52;6.00;;;;;;;5.81;100.00;102171.19;5035264;28;20120;-72
2022/11/27 02:06:39;;;;;;;16.27;5.93;;;;;;;5.77;100.00;102167.16;5019840;28;20398;-70
2022/11/27 02:09:05;;;;;;;16.15;4.93;;;;;;;5.77;100.00;102165.31;5014594;28;20040;-69
2022/11/27 02:11:44;;;;;;;18.38;6.07;;;;;;;5.73;100.00;102168.47;5017588;28;20456;-71
2022/11/27 02:14:23;;;;;;;16.02;5.38;;;;;;;5.75;100.00;102161.97;5015051;28;20092;-69
2022/11/27 02:17:03;;;;;;;13.40;5.15;;;;;;;5.71;100.00;102147.16;5015107;28;20040;-71
2022/11/27 02:19:46;;;;;;;20.42;5.45;;;;;;;5.70;100.00;102145.47;5015511;28;20038;-70
2022/11/27 02:22:24;;;;;;;18.05;6.47;;;;;;;5.72;100.00;102146.13;5015102;28;20029;-70
2022/11/27 02:25:05;;;;;;;13.68;5.65;;;;;;;5.66;100.00;102142.28;5014719;28;20034;-69
2022/11/27 02:28:00;;;;;;;16.08;6.25;;;;;;;5.62;100.00;102132.00;5017568;28;20029;-69
2022/11/27 02:30:28;;;;;;;20.50;5.93;;;;;;;5.59;100.00;102129.66;5016343;28;20074;-71
2022/11/27 02:32:59;;;;;;;14.60;5.90;;;;;;;5.56;100.00;102130.81;5014548;28;20045;-72
2022/11/27 02:35:59;;;;;;;13.68;5.40;;;;;;;5.61;100.00;102133.00;5015076;28;20061;-70
2022/11/27 02:38:31;;;;;;;18.95;5.95;;;;;;;5.59;100.00;102132.34;5019210;28;20042;-72
2022/11/27 02:41:04;;;;;;;18.38;6.00;;;;;;;5.58;100.00;102130.63;5024521;28;20029;-71
2022/11/27 02:43:35;;;;;;;15.38;5.78;;;;;;;5.55;100.00;102123.75;5014719;28;20065;-70
2022/11/27 02:46:03;;;;;;;16.27;5.60;;;;;;;5.52;100.00;102115.19;5014337;28;20034;-70
2022/11/27 02:48:41;;;;;;;16.35;5.32;;;;;;;5.51;100.00;102122.41;5014348;28;20130;-69
2022/11/27 02:51:07;;;;;;;16.35;5.97;;;;;;;5.57;100.00;102116.38;5013116;28;20026;-69
2022/11/27 02:53:37;;;;;;;16.95;5.90;;;;;;;5.52;100.00;102131.28;5021232;28;20034;-69
2022/11/27 02:56:07;;;;;;;17.35;6.38;;;;;;;5.49;100.00;102129.75;5018484;28;20029;-70
2022/11/27 02:58:36;;;;;;;13.32;5.22;;;;;;;5.53;100.00;102131.13;5014422;28;20033;-71
2022/11/27 03:01:04;;;;;;;18.10;6.10;;;;;;;5.50;100.00;102132.28;5017557;28;20385;-70
2022/11/27 03:03:35;;;;;;;14.25;6.20;;;;;;;5.53;100.00;102131.13;5020119;28;20048;-71
2022/11/27 03:06:06;;;;;;;14.10;5.07;;;;;;;5.54;100.00;102143.56;5014007;28;20072;-71
2022/11/27 03:08:37;;;;;;;16.27;5.78;;;;;;;5.55;100.00;102134.47;5014102;28;20378;-72
2022/11/27 03:11:05;;;;;;;15.98;5.38;;;;;;;5.56;100.00;102140.72;5016132;28;20049;-69
2022/11/27 03:13:36;;;;;;;13.90;5.38;;;;;;;5.55;100.00;102139.03;5014079;28;20528;-70
2022/11/27 03:16:25;;;;;;;14.02;5.43;;;;;;;5.66;100.00;102130.66;5013042;28;20034;-70
2022/11/27 03:19:01;;;;;;;12.90;4.85;;;;;;;5.63;100.00;102120.25;5013921;28;20105;-68
2022/11/27 03:21:36;;;;;;;15.15;5.13;;;;;;;5.65;100.00;102118.25;5020053;28;20032;-69
2022/11/27 03:24:02;;;;;;;15.93;5.03;;;;;;;5.67;100.00;102117.06;5013722;28;20500;-72
2022/11/27 03:26:27;;;;;;;15.50;5.20;;;;;;;5.67;100.00;102114.38;5013683;28;20034;-70
2022/11/27 03:28:55;;;;;;;14.07;5.03;;;;;;;5.66;100.00;102118.09;5013931;28;20054;-69
2022/11/27 03:31:22;;;;;;;11.23;4.78;;;;;;;5.64;100.00;102116.56;5019734;28;20034;-69
2022/11/27 03:33:49;;;;;;;12.35;4.78;;;;;;;5.65;100.00;102115.56;5014011;28;20026;-70
2022/11/27 03:36:17;;;;;;;13.10;5.07;;;;;;;5.68;100.00;102112.56;5014103;28;20135;-70
2022/11/27 03:38:44;;;;;;;11.02;5.00;;;;;;;5.68;100.00;102117.94;5013737;28;20088;-69
2022/11/27 03:41:26;;;;;;;12.60;4.53;;;;;;;5.68;100.00;102101.81;5013732;28;20034;-71
2022/11/27 03:44:20;;;;;;;12.55;4.95;;;;;;;5.71;100.00;102090.75;5013671;28;20036;-72
2022/11/27 03:47:09;;;;;;;14.23;4.57;;;;;;;5.70;100.00;102081.00;5013720;28;20034;-68
2022/11/27 03:50:05;;;;;;;10.82;4.68;;;;;;;5.74;100.00;102079.69;5021529;28;20041;-69
2022/11/27 03:52:51;;;;;;;12.63;4.45;;;;;;;5.76;100.00;102092.94;5015168;28;20497;-71
2022/11/27 03:55:27;;;;;;;8.88;4.00;;;;;;;5.74;100.00;102086.91;5023552;28;20044;-71
2022/11/27 03:58:02;;;;;;;10.93;4.25;;;;;;;5.76;100.00;102083.03;5013180;28;20040;-72
2022/11/27 04:00:36;;;;;;;11.88;4.35;;;;;;;5.75;100.00;102089.44;5011864;28;20358;-69
2022/11/27 04:03:02;;;;;;;12.85;4.60;;;;;;;5.74;100.00;102087.75;5015921;28;20619;-71
2022/11/27 04:05:28;;;;;;;10.00;4.20;;;;;;;5.69;100.00;102090.06;5013088;28;20084;-72
2022/11/27 04:07:53;;;;;;;8.82;4.15;;;;;;;5.72;100.00;102088.91;5019938;28;20029;-69
2022/11/27 04:10:18;;;;;;;15.95;4.30;;;;;;;5.74;100.00;102094.97;5018446;28;20062;-71
2022/11/27 04:12:43;;;;;;;8.45;4.05;;;;;;;5.76;100.00;102101.00;5019378;28;20420;-70
2022/11/27 04:15:09;;;;;;;10.50;4.15;;;;;;;5.75;100.00;102097.50;5013131;28;20025;-68
2022/11/27 04:17:35;;;;;;;11.02;4.05;;;;;;;5.79;100.00;102100.69;5012613;28;20033;-70
2022/11/27 04:20:00;;;;;;;12.50;4.10;;;;;;;5.77;100.00;102105.38;5016293;28;20052;-72
2022/11/27 04:22:25;;;;;;;11.60;4.07;;;;;;;5.79;100.00;102109.56;5015888;28;20049;-71
2022/11/27 04:24:51;;;;;;;11.68;4.18;;;;;;;5.82;100.00;102109.25;5012924;28;20065;-68
2022/11/27 04:27:16;;;;;;;10.50;4.03;;;;;;;5.82;100.00;102103.03;5011648;28;20041;-72
2022/11/27 04:29:42;;;;;;;11.63;4.07;;;;;;;5.82;100.00;102097.66;5012832;28;20057;-72
2022/11/27 04:32:07;;;;;;;9.63;3.80;;;;;;;5.80;100.00;102092.47;5017207;28;20030;-71
2022/11/27 04:34:33;;;;;;;11.00;3.92;;;;;;;5.83;100.00;102099.38;5012751;28;20108;-72
2022/11/27 04:36:58;;;;;;;9.20;3.45;;;;;;;5.82;100.00;102092.31;5013303;28;20033;-69
2022/11/27 04:39:23;;;;;;;9.02;3.80;;;;;;;5.82;100.00;102097.66;5012796;28;20099;-69
2022/11/27 04:41:49;;;;;;;11.80;3.88;;;;;;;5.83;100.00;102094.81;5014892;28;20121;-70
2022/11/27 04:44:14;;;;;;;6.88;3.45;;;;;;;5.85;100.00;102095.50;5012494;28;20042;-71
2022/11/27 04:46:40;;;;;;;8.32;3.50;;;;;;;5.88;100.00;102090.81;5012811;28;20030;-71
2022/11/27 04:49:05;;;;;;;11.00;4.25;;;;;;;5.86;100.00;102090.97;5012684;28;20031;-71
2022/11/27 04:51:30;;;;;;;10.82;4.13;;;;;;;5.91;100.00;102088.63;5018351;28;20045;-68
2022/11/27 04:53:56;;;;;;;7.90;3.70;;;;;;;5.94;100.00;102079.41;5015051;28;20026;-69
2022/11/27 04:56:22;;;;;;;19.15;4.85;;;;;;;5.96;100.00;102066.63;5018777;28;20042;-69
2022/11/27 04:58:47;;;;;;;9.18;4.07;;;;;;;5.96;100.00;102077.38;5012472;28;20411;-70
2022/11/27 05:01:12;;;;;;;9.63;3.90;;;;;;;5.90;100.00;102064.63;5010975;28;20054;-69
2022/11/27 05:03:38;;;;;;;8.73;3.90;;;;;;;5.89;100.00;102070.97;5012677;28;20068;-70
2022/11/27 05:06:03;;;;;;;10.95;4.50;;;;;;;5.91;100.00;102069.00;5015158;28;20033;-71
2022/11/27 05:08:30;;;;;;;13.82;3.97;;;;;;;5.92;100.00;102055.41;5012155;28;20424;-70
2022/11/27 05:11:05;;;;;;;8.95;3.88;;;;;;;5.90;100.00;102049.31;5019017;28;20056;-69
2022/11/27 05:13:30;;;;;;;10.07;4.28;;;;;;;5.87;100.00;102052.34;5019633;28;20032;-70
2022/11/27 05:15:56;;;;;;;7.45;3.83;;;;;;;5.86;100.00;102039.94;5014903;28;20113;-69
2022/11/27 05:18:22;;;;;;;9.88;3.85;;;;;;;5.88;100.00;102047.84;5012183;28;20048;-69
2022/11/27 05:20:47;;;;;;;7.63;3.35;;;;;;;5.88;100.00;102039.78;5013355;28;20467;-70
2022/11/27 05:23:12;;;;;;;11.50;4.28;;;;;;;5.88;100.00;102037.09;5012307;28;20045;-72
2022/11/27 05:25:38;;;;;;;13.02;4.40;;;;;;;5.91;100.00;102037.59;5011940;28;20026;-68
2022/11/27 05:28:04;;;;;;;10.45;3.92;;;;;;;5.89;100.00;102036.91;5013407;28;20037;-69
2022/11/27 05:30:29;;;;;;;12.13;4.22;;;;;;;5.93;100.00;102040.09;5012632;28;20071;-70
2022/11/27 05:32:54;;;;;;;9.65;3.97;;;;;;;5.93;100.00;102034.72;5011885;28;20484;-71
2022/11/27 05:35:19;;;;;;;12.30;4.22;;;;;;;5.93;100.00;102037.41;5012058;28;20053;-72
2022/11/27 05:37:45;;;;;;;11.23;4.30;;;;;;;5.93;100.00;102034.72;5019038;28;20474;-69
2022/11/27 05:40:10;;;;;;;11.05;3.78;;;;;;;5.97;100.00;102033.44;5024681;28;20044;-68
2022/11/27 05:42:35;;;;;;;8.60;3.35;;;;;;;5.94;100.00;102025.69;5018585;28;20374;-71
2022/11/27 05:45:01;;;;;;;9.18;4.00;;;;;;;5.92;100.00;102019.59;5017940;28;20077;-70
2022/11/27 05:47:26;;;;;;;8.95;3.90;;;;;;;5.90;100.00;102014.41;5015465;28;20026;-71
2022/11/27 05:49:52;;;;;;;9.10;3.50;;;;;;;5.94;100.00;102015.75;5016355;28;20109;-71
2022/11/27 05:52:17;;;;;;;9.07;4.13;;;;;;;5.94;100.00;102015.75;5024224;28;20040;-69
2022/11/27 05:54:42;;;;;;;9.77;4.20;;;;;;;5.90;100.00;102002.81;5020976;28;20029;-70
2022/11/27 05:57:07;;;;;;;7.63;3.50;;;;;;;5.92;100.00;101996.28;5017717;28;20526;-71
2022/11/27 05:59:33;;;;;;;9.48;3.72;;;;;;;5.95;100.00;101993.28;5025797;28;20030;-71
2022/11/27 06:01:58;;;;;;;10.40;3.70;;;;;;;5.90;100.00;102003.66;5023133;28;20038;-69
2022/11/27 06:04:23;;;;;;;8.40;3.85;;;;;;;5.91;100.00;101999.97;5023699;28;20121;-70
2022/11/27 06:06:49;;;;;;;12.02;4.20;;;;;;;5.91;100.00;101999.97;5023675;28;20030;-69
2022/11/27 06:09:14;;;;;;;10.07;3.63;;;;;;;5.92;100.00;101996.28;5020443;28;20484;-69
2022/11/27 06:11:40;;;;;;;11.00;3.83;;;;;;;5.95;100.00;101992.41;5025727;28;20044;-71
2022/11/27 06:14:07;;;;;;;7.47;3.55;;;;;;;5.90;100.00;101997.44;5024060;28;20029;-70
2022/11/27 06:16:33;;;;;;;10.73;3.67;;;;;;;5.91;100.00;101994.59;5026156;28;20036;-70
2022/11/27 06:18:58;;;;;;;9.85;3.83;;;;;;;5.91;100.00;101985.72;5026473;28;20022;-71
2022/11/27 06:21:23;;;;;;;11.15;3.78;;;;;;;5.95;100.00;101998.63;5024408;28;20030;-69
2022/11/27 06:23:52;;;;;;;9.65;3.30;;;;;;;5.94;100.00;101985.38;5026334;28;20025;-71
2022/11/27 06:26:21;;;;;;;9.98;3.60;;;;;;;5.97;100.00;101988.59;5024914;28;20389;-69
2022/11/27 06:28:47;;;;;;;10.65;3.88;;;;;;;5.98;100.00;101978.69;5017902;28;20156;-69
2022/11/27 06:31:18;;;;;;;10.15;3.80;;;;;;;6.01;100.00;101984.56;5020259;28;20061;-70
2022/11/27 06:33:45;;;;;;;6.63;3.70;;;;;;;6.01;100.00;101987.25;5022666;28;20442;-71
2022/11/27 06:36:10;;;;;;;8.15;3.67;;;;;;;5.99;100.00;101986.59;5028307;28;20270;-69
2022/11/27 06:38:37;;;;;;;8.90;3.65;;;;;;;6.01;100.00;101991.81;5022543;28;20026;-71
2022/11/27 06:41:10;;;;;;;9.05;3.50;;;;;;;6.03;100.00;101987.09;5021988;28;20029;-72
2022/11/27 06:43:36;;;;;;;8.00;3.72;;;;;;;6.00;100.00;101993.63;5022732;28;20037;-69
2022/11/27 06:46:04;;;;;;;9.52;3.42;;;;;;;5.99;100.00;101989.28;5019408;28;20038;-69
2022/11/27 06:48:30;;;;;;;9.85;4.00;;;;;;;5.96;100.00;101986.03;5023839;28;20033;-68
2022/11/27 06:51:00;;;;;;;7.88;3.72;;;;;;;5.99;100.00;101985.75;5020830;28;20481;-72
2022/11/27 06:53:26;;;;;;;11.02;3.88;;;;;;;5.98;100.00;101981.38;5023982;28;20025;-70
2022/11/27 06:55:51;;;;;;;10.07;3.97;;;;;;;6.00;100.00;101972.13;5024666;28;20039;-71
2022/11/27 06:58:16;;;;;;;8.32;3.70;;;;;;;6.00;100.00;101971.31;5025452;28;20080;-67
2022/11/27 07:00:41;;;;;;;9.73;3.90;;;;;;;6.01;100.00;101970.31;5020023;28;20029;-70
2022/11/27 07:03:07;;;;;;;10.15;3.63;;;;;;;5.99;100.00;101964.25;5024589;28;20046;-70
2022/11/27 07:05:32;;;;;;;8.73;3.83;;;;;;;5.98;100.00;101957.22;5017277;28;20121;-69
2022/11/27 07:07:58;;;;;;;10.27;4.10;;;;;;;5.99;100.00;101969.63;5022880;28;20030;-69
2022/11/27 07:10:23;;;;;;;10.82;3.78;;;;;;;6.01;100.00;101946.94;5028803;28;20041;-71
2022/11/27 07:12:48;;;;;;;9.30;3.75;;;;;;;5.99;100.00;101948.13;5022575;28;20052;-72
2022/11/27 07:15:13;;;;;;;11.57;3.67;;;;;;;6.01;100.00;101935.38;5025083;28;20376;-69
2022/11/27 07:17:40;;;;;;;9.10;3.55;;;;;;;5.97;100.00;101931.34;5023362;28;20029;-72
2022/11/27 07:20:06;;;;;;;7.35;3.38;;;;;;;5.96;100.00;101926.94;5026403;28;20029;-72
2022/11/27 07:22:31;;;;;;;10.57;3.88;;;;;;;6.00;100.00;101925.63;5022557;28;20475;-70
2022/11/27 07:24:57;;;;;;;9.82;3.90;;;;;;;5.99;100.00;101929.31;5021848;28;20030;-72
2022/11/27 07:27:22;;;;;;;10.13;3.55;;;;;;;5.95;100.00;101926.09;5020713;28;20030;-69
2022/11/27 07:29:48;;;;;;;10.70;3.95;;;;;;;5.95;100.00;101925.25;5018557;28;20030;-71
2022/11/27 07:32:13;;;;;;;15.77;3.83;;;;;;;5.94;100.00;101923.59;5022163;28;20033;-72
2022/11/27 07:34:38;;;;;;;10.10;3.92;;;;;;;5.95;100.00;101914.50;5020251;28;20034;-72
2022/11/27 07:37:03;;;;;;;9.63;3.85;;;;;;;5.97;100.00;101915.22;5020553;28;20113;-72
2022/11/27 07:39:29;;;;;;;10.45;3.75;;;;;;;5.96;100.00;101905.44;5014489;28;20032;-68
2022/11/27 07:41:54;;;;;;;8.65;4.00;;;;;;;6.01;100.00;101913.88;5023668;28;20116;-72
2022/11/27 07:44:19;;;;;;;8.95;4.20;;;;;;;6.00;100.00;101909.50;5024626;28;20041;-72
2022/11/27 07:46:44;;;;;;;12.70;4.20;;;;;;;5.97;100.00;101907.16;5016739;28;20034;-71
2022/11/27 07:49:10;;;;;;;8.10;3.97;;;;;;;5.94;100.00;101904.78;5020570;28;20026;-70
2022/11/27 07:51:35;;;;;;;10.75;4.57;;;;;;;5.92;100.00;101896.03;5019125;28;20109;-69
2022/11/27 07:54:00;;;;;;;12.18;4.15;;;;;;;5.93;100.00;101886.97;5023910;28;20124;-70
2022/11/27 07:56:26;;;;;;;9.45;4.32;;;;;;;5.94;100.00;101872.53;5018894;28;20037;-70
2022/11/27 07:58:52;;;;;;;10.65;4.25;;;;;;;5.94;100.00;101870.69;5022244;28;20030;-70
2022/11/27 08:01:18;;;;;;;13.20;4.72;;;;;;;5.93;100.00;101868.16;5026608;28;20068;-70
2022/11/27 08:03:45;;;;;;;11.65;4.57;;;;;;;5.95;100.00;101868.81;5024204;28;20095;-67
2022/11/27 08:06:20;;;;;;;10.70;4.22;;;;;;;5.94;100.00;101875.22;5028537;28;20179;-69
2022/11/27 08:08:46;;;;;;;14.25;4.57;;;;;;;5.94;100.00;101867.16;5024468;28;20030;-71
2022/11/27 08:11:23;;;;;;;10.48;4.53;;;;;;;5.99;100.00;101865.69;5032667;28;20049;-71
2022/11/27 08:13:49;;;;;;;12.13;4.43;;;;;;;6.01;100.00;101873.56;5032703;28;20552;-71
2022/11/27 08:16:14;;;;;;;14.43;5.43;;;;;;;6.02;100.00;101862.66;5027422;28;20045;-68
2022/11/27 08:18:40;;;;;;;8.45;4.30;;;;;;;6.00;100.00;101869.19;5013352;28;20374;-71
2022/11/27 08:21:05;;;;;;;11.45;5.40;;;;;;;6.00;100.00;101869.19;5013411;28;20034;-71
2022/11/27 08:23:30;;;;;;;10.48;5.25;;;;;;;6.01;100.00;101860.97;5020452;28;20061;-69
2022/11/27 08:25:56;;;;;;;11.38;5.10;;;;;;;6.01;100.00;101858.28;5024733;28;21762;-71
2022/11/27 08:28:21;;;;;;;11.45;5.05;;;;;;;6.03;100.00;101867.00;5017714;28;20516;-70
2022/11/27 08:30:57;;;;;;;11.95;4.95;;;;;;;6.09;100.00;101862.81;5012945;28;20044;-70
2022/11/27 08:33:23;;;;;;;11.20;4.68;;;;;;;6.10;100.00;101861.81;5023192;28;20163;-71
2022/11/27 08:35:49;;;;;;;12.73;5.13;;;;;;;6.05;100.00;101872.22;5021546;28;20083;-71
2022/11/27 08:38:15;;;;;;;12.93;5.65;;;;;;;6.07;100.00;101875.59;5013451;28;20037;-71
2022/11/27 08:40:40;;;;;;;10.27;5.78;;;;;;;6.09;100.00;101862.81;5031725;28;20033;-71
2022/11/27 08:43:05;;;;;;;16.27;5.88;;;;;;;6.07;100.00;101866.66;5023636;28;20042;-71
2022/11/27 08:45:31;;;;;;;8.23;5.32;;;;;;;6.10;100.00;101863.63;5022378;28;20440;-71
2022/11/27 08:47:57;;;;;;;15.43;5.50;;;;;;;6.13;100.00;101863.28;5019518;28;20095;-70
2022/11/27 08:50:23;;;;;;;11.88;6.30;;;;;;;6.12;100.00;101856.25;5022503;28;20065;-70
2022/11/27 08:52:48;;;;;;;11.75;6.45;;;;;;;6.11;100.00;101859.94;5014515;28;20025;-71
2022/11/27 08:55:13;;;;;;;13.95;5.97;;;;;;;6.13;100.00;101869.53;5023165;28;20037;-69
2022/11/27 08:57:38;;;;;;;10.43;5.90;;;;;;;6.15;100.00;101870.19;5023462;28;20037;-71
2022/11/27 09:00:06;;;;;;;10.90;5.88;;;;;;;6.16;100.00;101874.56;5015664;28;20033;-70
2022/11/27 09:02:33;;;;;;;12.30;5.93;;;;;;;6.20;100.00;101865.16;5019202;28;20061;-73
2022/11/27 09:04:58;;;;;;;11.27;6.00;;;;;;;6.26;100.00;101868.97;5020478;28;20045;-72
2022/11/27 09:07:23;;;;;;;11.43;5.60;;;;;;;6.26;100.00;101865.47;5021452;28;20037;-75
2022/11/27 09:09:49;;;;;;;11.57;6.07;;;;;;;6.28;100.00;101869.66;5017475;28;20477;-76
2022/11/27 09:12:14;;;;;;;12.80;6.43;;;;;;;6.32;100.00;101867.47;5024357;28;20041;-71
2022/11/27 09:14:39;;;;;;;12.73;6.43;;;;;;;6.31;100.00;101857.72;5015497;28;20481;-70
2022/11/27 09:17:05;;;;;;;11.82;6.28;;;;;;;6.33;100.00;101859.22;5024504;28;20483;-71
2022/11/27 09:19:30;;;;;;;11.55;6.68;;;;;;;6.33;100.00;101858.41;5034510;28;20112;-71
2022/11/27 09:21:55;;;;;;;12.32;5.78;;;;;;;6.35;100.00;101867.94;5035637;28;20029;-71
2022/11/27 09:24:21;;;;;;;10.40;6.30;;;;;;;6.38;100.00;101861.41;5034517;28;20326;-70
2022/11/27 09:26:46;;;;;;;11.65;6.10;;;;;;;6.37;100.00;101855.19;5032333;28;20029;-76
2022/11/27 09:29:11;;;;;;;14.60;6.88;;;;;;;6.44;100.00;101855.31;5034641;28;20040;-75
2022/11/27 09:31:37;;;;;;;11.85;6.32;;;;;;;6.44;100.00;101860.69;5024841;28;20030;-77
2022/11/27 09:34:03;;;;;;;11.10;6.25;;;;;;;6.48;100.00;101859.34;5016118;28;20473;-72
2022/11/27 09:36:29;;;;;;;12.18;6.85;;;;;;;6.51;100.00;101863.56;5016065;28;20355;-77
2022/11/27 09:38:54;;;;;;;12.27;7.05;;;;;;;6.50;100.00;101861.88;5014800;28;20057;-71
2022/11/27 09:41:44;;;;;;;13.10;7.50;;;;;;;6.54;100.00;101861.34;5015951;28;20033;-76
2022/11/27 09:44:38;;;;;;;15.55;7.05;;;;;;;6.54;100.00;101855.97;5025539;28;20426;-72
2022/11/27 09:47:12;;;;;;;12.82;7.10;;;;;;;6.59;100.00;101851.94;5017261;28;20034;-73
2022/11/27 09:49:44;;;;;;;15.88;7.68;;;;;;;6.60;100.00;101843.69;5016266;28;20053;-74
2022/11/27 09:52:34;;;;;;;14.07;7.65;;;;;;;6.61;100.00;101850.72;5019036;28;20100;-72
2022/11/27 09:55:12;;;;;;;13.23;7.80;;;;;;;6.64;100.00;101847.69;5030170;28;20504;-67
2022/11/27 09:57:40;;;;;;;12.40;7.72;;;;;;;6.66;100.00;101831.41;5033503;28;20461;-71
2022/11/27 10:00:16;;;;;;;12.27;7.25;;;;;;;6.68;100.00;101830.19;5033632;28;20037;-73
2022/11/27 10:02:42;;;;;;;13.15;7.95;;;;;;;6.69;100.00;101825.66;5031178;28;20500;-72
2022/11/27 10:05:19;;;;;;;14.00;7.13;;;;;;;6.74;100.00;101825.97;5034787;28;20026;-71
2022/11/27 10:08:08;;;;;;;12.23;6.85;;;;;;;6.78;100.00;101827.31;5015447;28;20021;-69
2022/11/27 10:10:45;;;;;;;14.43;8.45;;;;;;;6.77;100.00;101822.94;5013726;28;20057;-71
2022/11/27 10:13:19;;;;;;;16.10;8.73;;;;;;;6.82;100.00;101812.47;5019963;28;20026;-72
2022/11/27 10:15:54;;;;;;;14.90;7.70;;;;;;;6.84;100.00;101812.28;5034220;28;20034;-74
2022/11/27 10:18:22;;;;;;;12.85;7.53;;;;;;;6.84;100.00;101810.44;5023890;28;20401;-83
2022/11/27 10:20:53;;;;;;;11.45;7.43;;;;;;;6.84;100.00;101802.38;5024679;28;20576;-73
2022/11/27 10:23:35;;;;;;;12.30;7.50;;;;;;;6.87;100.00;101785.88;5026086;28;20042;-84
2022/11/27 10:26:06;;;;;;;12.32;6.90;;;;;;;6.88;100.00;101792.94;5026084;28;20053;-71
2022/11/27 10:28:40;;;;;;;13.13;7.85;;;;;;;6.95;100.00;101786.84;5022671;28;20112;-73
2022/11/27 10:31:12;;;;;;;11.57;7.57;;;;;;;6.91;100.00;101797.97;5022926;28;20026;-72
2022/11/27 10:33:41;;;;;;;;;;;;;;;7.04;100.00;101791.16;5024896;28;20030;-73
2022/11/27 10:36:32;;;;;;;13.88;7.75;;;;;;;7.04;100.00;101788.47;5030889;28;19999;-72
2022/11/27 10:39:00;;;;;;;10.27;6.97;;;;;;;7.00;100.00;101779.91;5021259;28;20053;-72
2022/11/27 10:41:52;;;;;;;15.15;7.75;;;;;;;7.04;100.00;101773.16;5019202;28;20026;-73
2022/11/27 10:44:32;;;;;;;12.55;7.40;;;;;;;7.10;100.00;101774.28;5022741;28;20038;-75
2022/11/27 10:47:02;;;;;;;14.57;7.50;;;;;;;7.07;100.00;101774.66;5019395;28;20373;-74
2022/11/27 10:49:27;;;;;;;12.93;7.13;;;;;;;7.09;100.00;101761.84;5030622;28;20120;-73
2022/11/27 10:51:52;;;;;;;11.20;7.28;;;;;;;7.08;100.00;101761.03;5024040;28;20485;-74
2022/11/27 10:54:29;;;;;;;12.82;8.77;;;;;;;7.07;100.00;101763.88;5020540;28;20029;-75
2022/11/27 10:57:25;;;;;;;15.45;8.88;;;;;;;7.09;100.00;101761.84;5021892;28;20037;-72
2022/11/27 10:59:59;;;;;;;15.13;8.23;;;;;;;7.13;100.00;101754.28;5014426;28;20073;-70
2022/11/27 11:02:26;;;;;;;12.73;7.95;;;;;;;7.14;100.00;101750.53;5020837;28;20057;-72
2022/11/27 11:04:52;;;;;;;12.48;7.80;;;;;;;7.08;100.00;101746.72;5016561;28;20037;-70
2022/11/27 11:07:28;;;;;;;14.05;7.78;;;;;;;7.12;100.00;101739.13;5019707;28;20092;-70
2022/11/27 11:09:55;;;;;;;12.50;8.02;;;;;;;7.11;100.00;101741.00;5014482;28;20086;-70
2022/11/27 11:12:22;;;;;;;10.73;7.13;;;;;;;7.08;100.00;101735.94;5021468;28;20056;-70
2022/11/27 11:14:53;;;;;;;12.30;7.40;;;;;;;7.05;100.00;101728.22;5015715;28;20030;-73
2022/11/27 11:17:37;;;;;;;10.65;6.65;;;;;;;7.09;100.00;101719.59;5019415;28;20121;-69
2022/11/27 11:20:34;;;;;;;14.30;7.40;;;;;;;7.17;100.00;101721.44;5013896;28;20038;-73
2022/11/27 11:23:00;;;;;;;14.38;7.65;;;;;;;7.14;100.00;101715.53;5008649;28;20041;-75
2022/11/27 11:25:25;;;;;;;11.35;7.07;;;;;;;7.14;100.00;101716.41;5027479;28;20033;-77
2022/11/27 11:27:51;;;;;;;10.65;7.38;;;;;;;7.18;100.00;101700.72;5022640;28;20487;-78